Time;durP1;ratioP1;P1;durP2;ratioP2;P2;SDS_P1;SDS_P2;PMS_P1;PMS_P2;Temp;Humidity;BMP_temperature;BMP_pressure;BME280_temperature;BME280_humidity;BME280_pressure;Samples;Min_cycle;Max_cycle;Signal;HPM_P1;HPM_P2
2021/12/29 00:00:45;;;;;;;16.73;7.90;;;22.70;91.60;;;;;;4188766;28;20398;-65
2021/12/29 00:02:50;;;;;;;15.63;7.78;;;22.60;91.50;;;;;;4181713;28;20048;-65
2021/12/29 00:04:55;;;;;;;14.95;8.85;;;22.60;91.50;;;;;;4181998;28;20110;-65
2021/12/29 00:07:00;;;;;;;16.02;8.88;;;22.70;91.50;;;;;;4177707;28;20051;-65
2021/12/29 00:09:05;;;;;;;16.02;9.18;;;22.80;91.30;;;;;;4182092;28;20045;-65
2021/12/29 00:11:11;;;;;;;15.25;9.73;;;22.90;91.20;;;;;;4189331;28;20498;-68
2021/12/29 00:13:16;;;;;;;16.67;10.35;;;22.90;91.10;;;;;;4182658;28;20052;-65
2021/12/29 00:15:25;;;;;;;15.93;10.40;;;22.90;90.80;;;;;;4185485;28;20048;-65
2021/12/29 00:17:30;;;;;;;16.52;10.27;;;22.90;90.80;;;;;;4176054;28;20048;-64
2021/12/29 00:19:34;;;;;;;24.30;11.60;;;22.90;90.80;;;;;;4177040;28;20772;-64
2021/12/29 00:21:39;;;;;;;22.73;12.05;;;22.80;90.90;;;;;;4176174;28;20048;-66
2021/12/29 00:23:43;;;;;;;22.80;11.25;;;22.90;90.80;;;;;;4176757;28;20135;-64
2021/12/29 00:26:00;;;;;;;15.93;11.10;;;22.80;90.70;;;;;;4179099;28;20215;-64
2021/12/29 00:28:05;;;;;;;17.52;10.52;;;22.80;90.80;;;;;;4174372;28;20467;-65
2021/12/29 00:30:13;;;;;;;13.55;9.25;;;22.90;90.70;;;;;;4175404;28;20049;-65
2021/12/29 00:32:37;;;;;;;20.27;9.35;;;22.80;91.10;;;;;;4175572;28;20507;-64
2021/12/29 00:34:54;;;;;;;21.40;8.95;;;22.90;90.80;;;;;;4175164;28;20334;-65
2021/12/29 00:37:18;;;;;;;21.10;9.27;;;23.00;90.80;;;;;;4176172;28;20045;-65
2021/12/29 00:39:36;;;;;;;19.73;8.45;;;22.90;90.90;;;;;;4176009;28;20037;-64
2021/12/29 00:41:52;;;;;;;20.88;10.20;;;22.90;91.00;;;;;;4172940;28;20139;-63
2021/12/29 00:44:09;;;;;;;18.23;10.65;;;22.70;91.50;;;;;;4176516;28;20061;-64
2021/12/29 00:46:17;;;;;;;20.15;10.48;;;22.70;91.70;;;;;;4175352;28;20045;-64
2021/12/29 00:48:30;;;;;;;17.08;9.95;;;22.60;91.50;;;;;;4175744;28;20075;-65
2021/12/29 00:50:35;;;;;;;15.93;9.68;;;22.60;91.50;;;;;;4178390;28;20056;-65
2021/12/29 00:52:39;;;;;;;15.68;10.10;;;22.60;91.30;;;;;;4177291;28;20110;-62
2021/12/29 00:54:44;;;;;;;15.98;8.95;;;22.50;91.60;;;;;;4175467;28;20072;-64
2021/12/29 00:56:59;;;;;;;16.20;8.93;;;22.60;91.30;;;;;;4172381;28;20049;-64
2021/12/29 00:59:05;;;;;;;16.63;8.45;;;22.60;91.30;;;;;;4174745;28;20048;-64
2021/12/29 01:01:10;;;;;;;18.25;8.73;;;22.50;91.60;;;;;;4173769;28;20139;-62
2021/12/29 01:03:14;;;;;;;13.52;8.20;;;22.70;91.60;;;;;;4175080;28;20064;-64
2021/12/29 01:05:20;;;;;;;13.90;8.35;;;22.70;91.40;;;;;;4175459;28;20044;-64
2021/12/29 01:07:25;;;;;;;16.33;9.05;;;22.90;91.20;;;;;;4176026;28;20391;-63
2021/12/29 01:09:34;;;;;;;15.57;9.00;;;23.00;90.80;;;;;;4173973;28;20056;-65
2021/12/29 01:11:39;;;;;;;40.20;10.55;;;23.00;90.90;;;;;;4175929;28;20041;-63
2021/12/29 01:13:48;;;;;;;21.05;8.45;;;23.00;91.00;;;;;;4175418;28;20084;-64
2021/12/29 01:18:19;;;;;;;13.63;6.72;;;23.00;90.90;;;;;;4175918;28;20052;-64
2021/12/29 01:20:25;;;;;;;10.52;6.13;;;22.90;90.90;;;;;;4176061;28;20292;-64
2021/12/29 01:22:44;;;;;;;10.73;6.15;;;23.10;90.70;;;;;;4178211;28;20044;-64
2021/12/29 01:24:49;;;;;;;12.20;5.88;;;23.10;90.50;;;;;;4178685;28;20090;-64
2021/12/29 01:26:53;;;;;;;8.57;5.78;;;23.30;90.30;;;;;;4175196;28;20052;-64
2021/12/29 01:28:58;;;;;;;10.93;6.35;;;23.40;90.10;;;;;;4174454;28;20073;-64
2021/12/29 01:31:02;;;;;;;8.25;5.57;;;23.50;90.10;;;;;;4179314;28;20045;-64
2021/12/29 01:33:07;;;;;;;12.40;5.60;;;23.50;90.00;;;;;;4179203;28;20048;-64
2021/12/29 01:35:12;;;;;;;7.95;5.22;;;23.50;89.90;;;;;;4179016;28;20083;-64
2021/12/29 01:37:17;;;;;;;13.23;7.38;;;23.60;89.60;;;;;;4177230;28;20522;-64
2021/12/29 01:39:21;;;;;;;12.00;5.85;;;23.50;89.70;;;;;;4179437;28;20037;-63
2021/12/29 01:41:27;;;;;;;15.80;9.45;;;23.50;90.10;;;;;;4178983;28;20096;-62
2021/12/29 01:43:31;;;;;;;14.27;7.03;;;23.40;90.20;;;;;;4178418;28;20144;-63
2021/12/29 01:45:37;;;;;;;13.90;6.10;;;23.40;90.10;;;;;;4176502;28;20819;-64
2021/12/29 01:47:42;;;;;;;10.27;5.35;;;23.50;90.00;;;;;;4178944;28;20083;-63
2021/12/29 01:49:47;;;;;;;15.25;6.68;;;23.40;90.10;;;;;;4179163;28;20045;-65
2021/12/29 01:52:02;;;;;;;8.93;5.38;;;23.50;90.10;;;;;;4178989;28;20138;-64
2021/12/29 01:54:23;;;;;;;9.88;6.25;;;23.60;89.40;;;;;;4177842;28;20534;-64
2021/12/29 01:56:30;;;;;;;7.13;5.20;;;23.30;90.00;;;;;;4177695;28;20051;-64
2021/12/29 01:58:35;;;;;;;8.70;4.45;;;23.50;90.00;;;;;;4174762;28;20041;-64
2021/12/29 02:00:41;;;;;;;9.13;4.47;;;23.60;89.10;;;;;;4176942;28;20037;-63
2021/12/29 02:02:46;;;;;;;6.00;4.05;;;23.60;89.10;;;;;;4178065;28;20037;-64
2021/12/29 02:04:50;;;;;;;8.70;4.85;;;23.70;89.00;;;;;;4178864;28;20559;-64
2021/12/29 02:06:55;;;;;;;10.48;5.28;;;23.70;89.40;;;;;;4178250;28;20053;-64
2021/12/29 02:09:00;;;;;;;12.45;6.07;;;23.60;89.50;;;;;;4176531;28;20051;-64
2021/12/29 02:11:07;;;;;;;19.15;6.78;;;23.60;89.60;;;;;;4178667;28;20048;-64
2021/12/29 02:13:12;;;;;;;12.00;7.00;;;23.70;89.40;;;;;;4178705;28;20057;-64
2021/12/29 02:15:16;;;;;;;12.00;7.03;;;23.70;89.50;;;;;;4173910;28;20439;-65
2021/12/29 02:17:21;;;;;;;23.80;17.58;;;23.90;88.50;;;;;;4176748;28;20495;-64
2021/12/29 02:19:26;;;;;;;14.13;8.77;;;23.90;88.40;;;;;;4178633;28;20446;-64
2021/12/29 02:21:32;;;;;;;30.50;20.88;;;23.90;88.00;;;;;;4178407;28;20068;-64
2021/12/29 02:23:55;;;;;;;9.32;7.60;;;23.90;88.40;;;;;;4175829;28;20037;-64
2021/12/29 02:26:02;;;;;;;7.57;5.18;;;23.90;88.10;;;;;;4176525;28;20045;-64
2021/12/29 02:28:08;;;;;;;9.98;4.88;;;24.00;87.80;;;;;;4178153;28;20045;-64
2021/12/29 02:30:20;;;;;;;8.68;4.70;;;24.20;87.70;;;;;;4175999;28;20107;-65
2021/12/29 02:32:24;;;;;;;7.70;4.28;;;24.30;87.20;;;;;;4178306;28;20356;-65
2021/12/29 02:34:30;;;;;;;7.78;4.13;;;24.30;88.20;;;;;;4178596;28;20053;-65
2021/12/29 02:36:34;;;;;;;7.05;4.28;;;24.50;87.60;;;;;;4178524;28;20410;-66
2021/12/29 02:38:46;;;;;;;8.68;4.15;;;24.60;86.70;;;;;;4178201;28;20092;-64
2021/12/29 02:40:53;;;;;;;8.40;4.30;;;24.60;86.30;;;;;;4178685;28;20094;-64
2021/12/29 02:42:57;;;;;;;10.13;4.80;;;24.40;86.50;;;;;;4175580;28;20087;-64
2021/12/29 02:45:03;;;;;;;11.18;4.50;;;24.40;87.00;;;;;;4177969;28;20139;-64
2021/12/29 02:47:08;;;;;;;6.80;4.20;;;24.50;86.60;;;;;;4178271;28;20052;-64
2021/12/29 02:49:13;;;;;;;9.50;4.35;;;24.60;86.00;;;;;;4176145;28;20067;-64
2021/12/29 02:51:17;;;;;;;10.48;4.43;;;24.80;86.00;;;;;;4178206;28;20053;-64
2021/12/29 02:53:23;;;;;;;9.25;4.68;;;25.00;86.60;;;;;;4178321;28;20047;-64
2021/12/29 02:55:27;;;;;;;9.55;4.97;;;25.10;85.80;;;;;;4176904;28;20041;-64
2021/12/29 02:57:31;;;;;;;7.68;5.13;;;25.10;85.60;;;;;;4178413;28;20087;-64
2021/12/29 02:59:36;;;;;;;13.65;6.70;;;25.20;85.60;;;;;;4177804;28;20539;-64
2021/12/29 03:01:41;;;;;;;8.63;4.68;;;25.20;84.50;;;;;;4173429;28;20040;-64
2021/12/29 03:03:45;;;;;;;16.33;5.15;;;25.20;84.80;;;;;;4181763;28;20029;-64
2021/12/29 03:05:51;;;;;;;9.52;5.20;;;25.20;84.70;;;;;;4179635;28;20569;-63
2021/12/29 03:07:56;;;;;;;8.48;5.35;;;25.30;85.30;;;;;;4178499;28;20072;-63
2021/12/29 03:10:02;;;;;;;13.45;5.25;;;25.30;84.40;;;;;;4177074;28;20044;-64
2021/12/29 03:12:12;;;;;;;7.75;4.20;;;25.30;84.20;;;;;;4179835;28;20090;-64
2021/12/29 03:14:17;;;;;;;6.97;3.53;;;25.30;84.20;;;;;;4178788;28;20435;-64
2021/12/29 03:16:22;;;;;;;6.45;3.20;;;25.40;84.40;;;;;;4179070;28;20464;-63
2021/12/29 03:18:26;;;;;;;13.60;3.63;;;25.40;83.60;;;;;;4182291;28;20107;-64
2021/12/29 03:20:31;;;;;;;6.68;3.80;;;25.40;84.00;;;;;;4181109;28;20047;-64
2021/12/29 03:22:36;;;;;;;5.97;3.55;;;25.40;84.10;;;;;;4180061;28;20076;-64
2021/12/29 03:24:41;;;;;;;5.97;3.17;;;25.60;84.10;;;;;;4179435;28;20059;-64
2021/12/29 03:26:45;;;;;;;5.47;3.22;;;25.60;83.60;;;;;;4184080;28;20084;-63
2021/12/29 03:28:51;;;;;;;14.57;3.67;;;25.60;83.50;;;;;;4181368;28;20053;-64
2021/12/29 03:30:56;;;;;;;4.70;3.50;;;25.80;82.70;;;;;;4180854;28;20413;-64
2021/12/29 03:33:05;;;;;;;4.72;3.05;;;25.80;82.50;;;;;;4181439;28;20049;-64
2021/12/29 03:35:10;;;;;;;6.32;3.28;;;25.90;82.80;;;;;;4179338;28;20535;-63
2021/12/29 03:37:14;;;;;;;7.18;2.72;;;25.80;82.70;;;;;;4181290;28;20473;-63
2021/12/29 03:39:18;;;;;;;6.22;3.10;;;25.90;83.40;;;;;;4180837;28;20373;-63
2021/12/29 03:41:24;;;;;;;6.57;3.60;;;26.00;83.90;;;;;;4181813;28;20041;-64
2021/12/29 03:43:29;;;;;;;9.82;5.50;;;26.00;82.60;;;;;;4182886;28;20033;-64
2021/12/29 03:45:33;;;;;;;6.32;3.42;;;26.00;82.10;;;;;;4206265;28;20052;-64
2021/12/29 03:47:38;;;;;;;7.03;3.28;;;26.00;82.00;;;;;;4180779;28;20049;-63
2021/12/29 03:49:43;;;;;;;5.65;2.90;;;26.00;82.20;;;;;;4178039;28;20462;-63
2021/12/29 03:51:48;;;;;;;3.97;2.92;;;26.20;82.30;;;;;;4180725;28;20125;-63
2021/12/29 03:53:52;;;;;;;8.65;4.78;;;26.20;81.70;;;;;;4178035;28;20061;-64
2021/12/29 03:55:57;;;;;;;6.95;4.65;;;26.20;81.40;;;;;;4179902;28;20055;-64
2021/12/29 03:58:01;;;;;;;9.60;4.70;;;26.20;81.90;;;;;;4179136;28;20514;-64
2021/12/29 04:00:08;;;;;;;9.48;5.53;;;26.20;81.50;;;;;;4178461;28;20047;-64
2021/12/29 04:02:13;;;;;;;6.18;3.40;;;26.30;81.80;;;;;;4180792;28;20033;-63
2021/12/29 04:04:19;;;;;;;7.05;3.47;;;26.40;81.50;;;;;;4179913;28;20048;-64
2021/12/29 04:06:23;;;;;;;5.30;2.40;;;26.40;81.70;;;;;;4177742;28;20061;-64
2021/12/29 04:08:27;;;;;;;3.35;2.40;;;26.40;81.60;;;;;;4180136;28;20053;-64
2021/12/29 04:10:32;;;;;;;7.00;3.00;;;26.40;81.70;;;;;;4180456;28;20056;-66
2021/12/29 04:12:39;;;;;;;6.78;3.20;;;26.50;81.30;;;;;;4179571;28;20098;-63
2021/12/29 04:14:43;;;;;;;8.18;3.78;;;26.50;81.10;;;;;;4180329;28;20399;-65
2021/12/29 04:16:48;;;;;;;8.05;2.60;;;26.50;81.10;;;;;;4180479;28;20410;-63
2021/12/29 04:21:18;;;;;;;4.13;2.40;;;26.60;81.10;;;;;;4177849;28;20145;-64
2021/12/29 04:23:23;;;;;;;9.65;3.35;;;26.60;80.80;;;;;;4178944;28;20129;-64
2021/12/29 04:25:29;;;;;;;8.85;2.58;;;26.60;80.60;;;;;;4175507;28;20080;-64
2021/12/29 04:27:33;;;;;;;3.15;1.77;;;26.60;80.60;;;;;;4179390;28;20041;-64
2021/12/29 04:29:38;;;;;;;2.97;1.70;;;26.70;80.60;;;;;;4178549;28;20120;-65
2021/12/29 04:31:42;;;;;;;4.60;1.75;;;26.80;81.00;;;;;;4180335;28;20403;-64
2021/12/29 04:33:49;;;;;;;5.70;1.98;;;26.80;80.20;;;;;;4180221;28;20041;-64
2021/12/29 04:35:53;;;;;;;4.65;2.20;;;26.80;80.60;;;;;;4179780;28;20037;-65
2021/12/29 04:37:58;;;;;;;6.30;2.70;;;26.90;81.10;;;;;;4178817;28;20085;-65
2021/12/29 04:40:04;;;;;;;5.13;2.38;;;27.00;81.00;;;;;;4177429;28;20045;-65
2021/12/29 04:42:09;;;;;;;3.17;2.03;;;27.10;80.60;;;;;;4178699;28;20045;-64
2021/12/29 04:44:13;;;;;;;12.48;7.05;;;27.10;80.50;;;;;;4177228;28;20056;-64
2021/12/29 04:46:19;;;;;;;21.30;9.80;;;27.10;80.10;;;;;;4178805;28;20044;-64
2021/12/29 04:48:25;;;;;;;24.65;11.90;;;27.10;80.00;;;;;;4177755;28;20095;-64
2021/12/29 04:50:37;;;;;;;74.43;16.75;;;27.10;79.60;;;;;;4178246;28;20052;-64
2021/12/29 04:52:41;;;;;;;20.98;9.77;;;27.20;80.00;;;;;;4179038;28;20044;-64
2021/12/29 04:54:47;;;;;;;14.00;6.30;;;27.30;79.90;;;;;;4177792;28;20132;-63
2021/12/29 04:56:52;;;;;;;5.28;3.17;;;27.30;79.80;;;;;;4177158;28;20041;-64
2021/12/29 04:58:57;;;;;;;6.07;3.38;;;27.40;79.90;;;;;;4177821;28;20068;-64
2021/12/29 05:01:01;;;;;;;5.60;2.38;;;27.40;78.60;;;;;;4176163;28;20064;-64
2021/12/29 05:03:06;;;;;;;6.15;1.77;;;27.40;77.70;;;;;;4176012;28;20049;-64
2021/12/29 05:05:21;;;;;;;5.50;1.90;;;27.40;78.00;;;;;;4175400;28;20080;-64
2021/12/29 05:09:42;;;;;;;6.53;1.80;;;27.50;79.30;;;;;;4176033;28;20044;-65
2021/12/29 05:11:47;;;;;;;7.72;2.10;;;27.50;78.40;;;;;;4175710;28;20075;-65
2021/12/29 05:13:51;;;;;;;5.25;1.52;;;27.60;78.30;;;;;;4175025;28;20073;-64
2021/12/29 05:15:56;;;;;;;4.85;1.60;;;27.70;78.90;;;;;;4176336;28;20055;-64
2021/12/29 05:18:01;;;;;;;3.22;1.40;;;27.70;78.40;;;;;;4175730;28;20037;-64
2021/12/29 05:20:07;;;;;;;5.47;2.00;;;27.70;77.90;;;;;;4176459;28;20511;-64
2021/12/29 05:22:11;;;;;;;7.97;4.03;;;27.70;78.10;;;;;;4176784;28;20056;-64
2021/12/29 05:24:16;;;;;;;7.70;5.63;;;27.60;78.40;;;;;;4176630;28;20048;-65
2021/12/29 05:26:20;;;;;;;15.15;10.45;;;27.70;78.70;;;;;;4175702;28;20076;-65
2021/12/29 05:28:25;;;;;;;9.48;6.70;;;27.70;78.80;;;;;;4176154;28;20053;-63
2021/12/29 05:30:29;;;;;;;8.45;5.10;;;27.80;78.30;;;;;;4175044;28;20080;-64
2021/12/29 05:32:33;;;;;;;5.07;3.33;;;27.80;78.40;;;;;;4175065;28;20053;-64
2021/12/29 05:34:38;;;;;;;5.40;2.45;;;27.90;78.10;;;;;;4173886;28;20040;-65
2021/12/29 05:36:42;;;;;;;4.38;2.35;;;27.90;77.90;;;;;;4176537;28;20045;-65
2021/12/29 05:38:46;;;;;;;5.32;2.60;;;27.90;78.00;;;;;;4174969;28;20345;-64
2021/12/29 05:40:55;;;;;;;3.70;2.47;;;27.90;78.30;;;;;;4176168;28;20388;-64
2021/12/29 05:43:01;;;;;;;4.80;1.95;;;27.90;78.40;;;;;;4173252;28;20053;-64
2021/12/29 05:45:08;;;;;;;3.33;2.00;;;27.90;77.60;;;;;;4175557;28;20415;-64
2021/12/29 05:47:12;;;;;;;4.40;2.25;;;28.00;77.80;;;;;;4175154;28;20106;-65
2021/12/29 05:49:17;;;;;;;4.07;2.10;;;28.00;77.20;;;;;;4175555;28;20053;-64
2021/12/29 05:51:22;;;;;;;6.20;2.42;;;28.10;77.80;;;;;;4175265;28;20037;-65
2021/12/29 05:53:28;;;;;;;3.55;2.22;;;28.20;77.50;;;;;;4174617;28;20128;-64
2021/12/29 05:55:32;;;;;;;5.22;2.17;;;28.20;77.10;;;;;;4175326;28;20064;-64
2021/12/29 05:57:37;;;;;;;3.83;2.00;;;28.10;77.10;;;;;;4175506;28;20049;-64
2021/12/29 05:59:41;;;;;;;5.88;2.70;;;28.10;77.70;;;;;;4174679;28;20383;-64
2021/12/29 06:01:45;;;;;;;6.70;3.13;;;28.20;77.80;;;;;;4175612;28;20072;-64
2021/12/29 06:03:50;;;;;;;8.23;3.40;;;28.20;77.70;;;;;;4174780;28;20049;-65
2021/12/29 06:05:55;;;;;;;6.47;2.08;;;28.20;77.50;;;;;;4175701;28;20067;-64
2021/12/29 06:07:59;;;;;;;3.53;2.15;;;28.20;77.20;;;;;;4175340;28;20045;-64
2021/12/29 06:10:04;;;;;;;4.22;1.70;;;28.30;76.90;;;;;;4175739;28;20045;-64
2021/12/29 06:12:10;;;;;;;5.38;2.20;;;28.30;76.20;;;;;;4174468;28;20071;-64
2021/12/29 06:14:16;;;;;;;4.53;1.60;;;28.40;76.00;;;;;;4175384;28;20087;-64
2021/12/29 06:16:20;;;;;;;6.88;1.80;;;28.30;76.60;;;;;;4174053;28;20045;-64
2021/12/29 06:18:24;;;;;;;4.15;1.60;;;28.30;76.80;;;;;;4177817;28;20051;-64
2021/12/29 06:20:29;;;;;;;6.88;2.45;;;28.40;77.20;;;;;;4175136;28;20408;-64
2021/12/29 06:22:33;;;;;;;5.28;2.20;;;28.50;76.00;;;;;;4173293;28;20067;-64
2021/12/29 06:24:41;;;;;;;3.00;1.85;;;28.50;76.30;;;;;;4175392;28;20048;-64
2021/12/29 06:26:46;;;;;;;2.53;1.58;;;28.50;76.10;;;;;;4171748;28;20052;-63
2021/12/29 06:28:51;;;;;;;3.53;1.50;;;28.50;76.20;;;;;;4172946;28;20056;-64
2021/12/29 06:30:55;;;;;;;3.85;1.83;;;28.50;75.80;;;;;;4170867;28;20383;-64
2021/12/29 06:33:00;;;;;;;6.70;1.98;;;28.50;76.10;;;;;;4175381;28;20327;-64
2021/12/29 06:35:06;;;;;;;3.38;1.55;;;28.60;76.60;;;;;;4171765;28;20041;-64
2021/12/29 06:37:12;;;;;;;6.78;1.52;;;28.60;77.10;;;;;;4200086;28;20094;-64
2021/12/29 06:39:17;;;;;;;5.10;1.90;;;28.70;77.10;;;;;;4173793;28;20462;-63
2021/12/29 06:41:22;;;;;;;6.95;3.05;;;28.80;76.90;;;;;;4178474;28;20132;-64
2021/12/29 06:43:27;;;;;;;3.95;1.83;;;28.80;76.20;;;;;;4173736;28;20488;-64
2021/12/29 06:45:31;;;;;;;3.60;1.95;;;28.90;75.20;;;;;;4177525;28;20387;-64
2021/12/29 06:47:36;;;;;;;3.88;1.90;;;28.90;75.00;;;;;;4175537;28;20037;-64
2021/12/29 06:49:40;;;;;;;4.97;1.27;;;28.80;74.90;;;;;;4179489;28;20049;-64
2021/12/29 06:51:45;;;;;;;3.85;2.00;;;28.80;74.60;;;;;;4179423;28;20538;-65
2021/12/29 06:53:49;;;;;;;4.15;2.00;;;28.90;75.30;;;;;;4181184;28;20037;-64
2021/12/29 06:55:54;;;;;;;7.70;1.92;;;28.90;75.40;;;;;;4179792;28;20498;-65
2021/12/29 06:57:58;;;;;;;4.00;1.98;;;28.90;75.40;;;;;;4178422;28;20040;-64
2021/12/29 07:00:04;;;;;;;2.53;1.42;;;29.00;75.40;;;;;;4179495;28;20045;-65
2021/12/29 07:02:10;;;;;;;2.70;1.40;;;29.00;75.40;;;;;;4180183;28;20041;-64
2021/12/29 07:04:15;;;;;;;3.55;1.20;;;29.00;75.30;;;;;;4180208;28;20047;-64
2021/12/29 07:06:19;;;;;;;2.47;1.33;;;29.00;75.00;;;;;;4180886;28;20496;-64
2021/12/29 07:08:24;;;;;;;3.30;1.40;;;29.00;74.90;;;;;;4178772;28;20363;-64
2021/12/29 07:10:28;;;;;;;2.65;1.38;;;29.10;74.40;;;;;;4180534;28;20083;-65
2021/12/29 07:12:33;;;;;;;5.00;1.00;;;29.10;74.50;;;;;;4180907;28;20064;-64
2021/12/29 07:14:40;;;;;;;2.33;1.30;;;29.10;74.70;;;;;;4179995;28;20049;-65
2021/12/29 07:16:44;;;;;;;3.53;1.20;;;29.10;74.40;;;;;;4180391;28;20066;-65
2021/12/29 07:18:49;;;;;;;3.38;1.10;;;29.20;74.70;;;;;;4180503;28;20132;-65
2021/12/29 07:20:53;;;;;;;2.45;1.00;;;29.20;74.30;;;;;;4180683;28;20075;-65
2021/12/29 07:22:58;;;;;;;1.48;0.95;;;29.10;73.60;;;;;;4180573;28;20044;-65
2021/12/29 07:25:03;;;;;;;6.15;0.95;;;29.10;74.00;;;;;;4179779;28;20048;-65
2021/12/29 07:27:08;;;;;;;2.80;1.00;;;29.10;73.60;;;;;;4181004;28;20052;-65
2021/12/29 07:29:12;;;;;;;1.83;0.82;;;29.10;73.70;;;;;;4180592;28;20089;-65
2021/12/29 07:31:20;;;;;;;2.33;1.10;;;29.20;74.20;;;;;;4180221;28;20053;-66
2021/12/29 07:33:44;;;;;;;4.35;1.25;;;29.20;74.10;;;;;;4178789;28;20045;-65
2021/12/29 07:35:49;;;;;;;3.78;1.10;;;29.20;73.80;;;;;;4179178;28;20040;-64
2021/12/29 07:37:53;;;;;;;1.85;1.17;;;29.30;74.60;;;;;;4177867;28;20056;-65
2021/12/29 07:39:58;;;;;;;2.22;1.13;;;29.30;74.30;;;;;;4174733;28;20372;-63
2021/12/29 07:42:02;;;;;;;2.03;0.93;;;29.30;73.90;;;;;;4179196;28;20041;-65
2021/12/29 07:44:16;;;;;;;1.50;1.10;;;29.30;73.70;;;;;;4172337;28;20160;-64
2021/12/29 07:46:20;;;;;;;3.97;1.10;;;29.30;73.40;;;;;;4176023;28;20546;-65
2021/12/29 07:48:28;;;;;;;2.90;1.23;;;29.30;73.50;;;;;;4171463;28;20045;-64
2021/12/29 07:50:34;;;;;;;2.33;1.05;;;29.30;73.60;;;;;;4175610;28;20052;-64
2021/12/29 07:52:38;;;;;;;3.60;1.23;;;29.30;73.10;;;;;;4177061;28;20048;-65
2021/12/29 07:54:43;;;;;;;5.82;1.00;;;29.30;73.80;;;;;;4175838;28;20072;-65
2021/12/29 07:56:47;;;;;;;2.92;1.90;;;29.30;74.20;;;;;;4199360;28;20094;-66
2021/12/29 07:58:52;;;;;;;4.97;2.60;;;29.40;73.90;;;;;;4175985;28;20049;-65
2021/12/29 08:00:56;;;;;;;3.53;1.60;;;29.40;74.10;;;;;;4175735;28;20669;-64
2021/12/29 08:03:01;;;;;;;1.92;1.13;;;29.40;73.50;;;;;;4175630;28;20551;-65
2021/12/29 08:05:07;;;;;;;2.05;1.20;;;29.40;73.50;;;;;;4176120;28;20391;-64
2021/12/29 08:07:21;;;;;;;2.45;1.20;;;29.40;73.30;;;;;;4175898;28;20285;-63
2021/12/29 08:09:26;;;;;;;4.20;1.80;;;29.40;73.70;;;;;;4176007;28;20542;-65
2021/12/29 08:11:30;;;;;;;6.30;1.70;;;29.40;73.50;;;;;;4176520;28;20040;-64
2021/12/29 08:13:35;;;;;;;6.80;1.40;;;29.50;73.40;;;;;;4175798;28;20051;-64
2021/12/29 08:15:39;;;;;;;2.60;1.05;;;29.50;72.90;;;;;;4175538;28;20523;-65
2021/12/29 08:17:44;;;;;;;4.32;1.40;;;29.50;72.30;;;;;;4176955;28;20055;-63
2021/12/29 08:19:50;;;;;;;2.92;1.60;;;29.50;72.40;;;;;;4176234;28;20045;-64
2021/12/29 08:21:54;;;;;;;2.67;1.20;;;29.40;72.10;;;;;;4174550;28;20067;-65
2021/12/29 08:23:58;;;;;;;2.67;1.40;;;29.40;73.10;;;;;;4176674;28;20452;-64
2021/12/29 08:26:03;;;;;;;1.95;1.10;;;29.40;72.30;;;;;;4176727;28;20095;-64
2021/12/29 08:28:08;;;;;;;3.40;1.40;;;29.40;72.70;;;;;;4169730;28;20049;-65
2021/12/29 08:30:13;;;;;;;6.03;1.40;;;29.40;72.80;;;;;;4171784;28;20674;-65
2021/12/29 08:32:17;;;;;;;4.03;1.63;;;29.40;72.70;;;;;;4177434;28;20139;-65
2021/12/29 08:34:22;;;;;;;5.90;1.42;;;29.40;72.70;;;;;;4172080;28;20049;-64
2021/12/29 08:36:26;;;;;;;3.95;1.27;;;29.40;72.90;;;;;;4177065;28;20491;-66
2021/12/29 08:38:31;;;;;;;2.80;1.30;;;29.40;72.90;;;;;;4173550;28;20041;-65
2021/12/29 08:40:36;;;;;;;4.40;1.60;;;29.40;72.60;;;;;;4176104;28;20048;-66
2021/12/29 08:42:40;;;;;;;2.30;1.42;;;29.40;72.40;;;;;;4176741;28;20466;-66
2021/12/29 08:44:44;;;;;;;3.33;1.52;;;29.40;72.80;;;;;;4175831;28;20049;-66
2021/12/29 08:46:49;;;;;;;7.35;1.70;;;29.50;72.80;;;;;;4177536;28;20407;-65
2021/12/29 08:48:53;;;;;;;3.72;2.10;;;29.40;72.40;;;;;;4178485;28;20083;-64
2021/12/29 08:50:59;;;;;;;4.78;2.53;;;29.50;72.40;;;;;;4174773;28;20396;-65
2021/12/29 08:53:05;;;;;;;2.33;1.40;;;29.50;72.80;;;;;;4178355;28;20059;-66
2021/12/29 08:55:10;;;;;;;1.73;1.08;;;29.40;72.60;;;;;;4176054;28;20414;-65
2021/12/29 09:23:34;;;;;;;3.65;2.00;;;29.10;72.70;;;;;;4197637;28;21725;-72
2021/12/29 09:25:40;;;;;;;5.85;1.60;;;29.20;73.80;;;;;;4202912;28;20548;-71
2021/12/29 09:27:49;;;;;;;4.35;1.95;;;29.20;73.90;;;;;;4190555;28;20047;-71
2021/12/29 09:29:56;;;;;;;5.57;2.90;;;29.20;73.80;;;;;;4196702;28;20051;-70
2021/12/29 09:32:02;;;;;;;6.60;3.20;;;29.20;73.40;;;;;;4209399;28;20418;-70
2021/12/29 09:34:07;;;;;;;7.18;4.07;;;29.20;73.40;;;;;;4187477;28;20314;-69
2021/12/29 09:36:11;;;;;;;6.40;3.70;;;29.30;73.10;;;;;;4202664;28;20155;-70
2021/12/29 09:38:18;;;;;;;5.10;2.63;;;29.30;73.60;;;;;;4207359;28;20061;-69
2021/12/29 09:40:32;;;;;;;3.55;2.08;;;29.20;73.30;;;;;;4208235;28;20040;-69
2021/12/29 09:42:37;;;;;;;2.65;1.67;;;29.20;73.40;;;;;;4204088;28;20049;-70
2021/12/29 09:44:41;;;;;;;5.07;1.50;;;29.20;73.20;;;;;;4202754;28;20073;-70
2021/12/29 09:46:48;;;;;;;4.45;1.45;;;29.20;73.30;;;;;;4200148;28;20045;-69
2021/12/29 09:48:52;;;;;;;3.20;1.58;;;29.10;73.50;;;;;;4191426;28;20064;-70
2021/12/29 09:50:57;;;;;;;4.20;1.50;;;29.20;73.50;;;;;;4180204;28;20460;-69
2021/12/29 09:53:01;;;;;;;8.10;1.70;;;29.10;73.50;;;;;;4160624;28;20041;-70
2021/12/29 09:55:09;;;;;;;4.32;1.73;;;29.10;73.60;;;;;;4168190;28;20060;-70
2021/12/29 09:57:13;;;;;;;4.97;2.75;;;29.10;73.80;;;;;;4171765;28;20041;-70
2021/12/29 09:59:18;;;;;;;9.02;4.28;;;29.10;73.90;;;;;;4170849;28;20049;-70
2021/12/29 10:01:23;;;;;;;8.40;3.47;;;29.10;74.30;;;;;;4174897;28;20384;-70
2021/12/29 10:03:29;;;;;;;6.82;3.90;;;29.00;74.50;;;;;;4170571;28;20045;-70
2021/12/29 10:05:34;;;;;;;5.03;3.22;;;29.00;74.60;;;;;;4168808;28;20041;-69
2021/12/29 10:07:38;;;;;;;4.40;2.47;;;29.00;74.50;;;;;;4166538;28;20104;-70
2021/12/29 10:09:42;;;;;;;8.05;3.00;;;28.90;74.50;;;;;;4166959;28;20562;-70
2021/12/29 10:11:48;;;;;;;5.43;2.80;;;28.90;74.60;;;;;;4168305;28;20105;-69
2021/12/29 10:13:54;;;;;;;7.53;2.75;;;28.90;74.70;;;;;;4168706;28;20041;-70
2021/12/29 10:16:11;;;;;;;6.03;2.60;;;28.80;74.90;;;;;;4174626;28;20041;-69
2021/12/29 10:18:22;;;;;;;7.05;2.47;;;28.80;75.00;;;;;;4167458;28;20057;-70
2021/12/29 10:20:27;;;;;;;4.95;2.33;;;28.80;75.20;;;;;;4168111;28;20120;-70
2021/12/29 10:22:31;;;;;;;6.88;2.50;;;28.80;75.30;;;;;;4174832;28;20056;-70
2021/12/29 10:24:36;;;;;;;13.02;3.67;;;28.80;75.40;;;;;;4177048;28;20076;-71
2021/12/29 10:26:45;;;;;;;6.57;4.22;;;28.80;75.50;;;;;;4178200;28;20044;-71
2021/12/29 10:28:51;;;;;;;10.63;5.60;;;28.80;75.60;;;;;;4179944;28;20083;-70
2021/12/29 10:31:03;;;;;;;9.35;5.03;;;28.80;75.60;;;;;;4179681;28;20106;-71
2021/12/29 10:33:11;;;;;;;13.02;6.15;;;28.80;75.70;;;;;;4176874;28;20068;-71
2021/12/29 10:35:29;;;;;;;14.70;6.30;;;28.80;75.70;;;;;;4179277;28;20047;-71
2021/12/29 10:37:34;;;;;;;11.40;6.75;;;28.70;75.70;;;;;;4194103;28;20082;-71
2021/12/29 10:39:47;;;;;;;13.48;7.90;;;28.70;75.80;;;;;;4179308;28;20049;-71
2021/12/29 10:42:15;;;;;;;17.33;8.02;;;28.70;75.90;;;;;;4178186;28;20063;-71
2021/12/29 10:44:31;;;;;;;19.45;10.60;;;28.60;75.80;;;;;;4178116;28;20056;-71
2021/12/29 10:46:36;;;;;;;18.30;9.35;;;28.60;76.00;;;;;;4175235;28;20041;-71
2021/12/29 10:48:46;;;;;;;20.38;9.40;;;28.60;75.90;;;;;;4179458;28;20041;-71
2021/12/29 10:51:08;;;;;;;18.30;8.25;;;28.60;76.00;;;;;;4175128;28;20037;-70
2021/12/29 10:53:13;;;;;;;16.85;6.65;;;28.60;75.90;;;;;;4175939;28;20542;-69
2021/12/29 10:55:31;;;;;;;15.77;6.03;;;28.60;75.90;;;;;;4158024;28;20046;-69
2021/12/29 10:57:36;;;;;;;10.77;5.68;;;28.60;76.00;;;;;;4180082;28;20037;-69
2021/12/29 10:59:41;;;;;;;14.43;6.22;;;28.60;76.00;;;;;;4177684;28;20110;-69
2021/12/29 11:01:46;;;;;;;17.08;6.50;;;28.50;76.00;;;;;;4177383;28;20049;-69
2021/12/29 11:03:55;;;;;;;14.68;5.78;;;28.50;76.20;;;;;;4180485;28;20071;-69
2021/12/29 11:06:02;;;;;;;9.32;4.50;;;28.50;76.20;;;;;;4180446;28;20053;-69
2021/12/29 11:08:11;;;;;;;11.80;5.68;;;28.50;76.10;;;;;;4181087;28;20048;-70
2021/12/29 11:10:32;;;;;;;14.82;5.70;;;28.50;76.30;;;;;;4180379;28;20094;-69
2021/12/29 11:12:53;;;;;;;19.92;6.07;;;28.40;76.30;;;;;;4170879;28;20325;-69
2021/12/29 11:14:58;;;;;;;19.15;7.68;;;28.40;76.40;;;;;;4178760;28;20510;-70
2021/12/29 11:17:17;;;;;;;24.17;11.00;;;28.40;76.60;;;;;;4178291;28;20387;-69
2021/12/29 11:19:21;;;;;;;32.28;19.88;;;28.40;76.60;;;;;;4170857;28;20490;-68
2021/12/29 11:21:28;;;;;;;40.28;19.58;;;28.40;76.40;;;;;;4171088;28;20447;-66
2021/12/29 11:23:32;;;;;;;31.50;20.60;;;28.30;76.90;;;;;;4175196;28;20083;-69
2021/12/29 11:25:37;;;;;;;34.05;19.05;;;28.40;76.90;;;;;;4173163;28;20531;-69
2021/12/29 11:27:42;;;;;;;28.30;18.25;;;28.40;77.00;;;;;;4168684;28;20068;-69